Time;durP1;ratioP1;P1;durP2;ratioP2;P2;SDS_P1;SDS_P2;PMS_P1;PMS_P2;Temp;Humidity;BMP_temperature;BMP_pressure;BME280_temperature;BME280_humidity;BME280_pressure;Samples;Min_cycle;Max_cycle;Signal;HPM_P1;HPM_P2
2021/09/14 00:01:14;;;;;;;18.90;14.68;;;;;;;13.70;78.64;99547.53;5028967;28;20049;-70
2021/09/14 00:03:40;;;;;;;24.80;20.40;;;;;;;13.67;78.04;99545.94;5029235;28;20033;-71
2021/09/14 00:06:05;;;;;;;24.95;20.30;;;;;;;13.62;79.18;99549.84;5011085;28;20033;-72
2021/09/14 00:08:31;;;;;;;24.98;21.48;;;;;;;13.59;78.99;99548.25;5029175;28;20150;-71
2021/09/14 00:10:56;;;;;;;23.65;17.25;;;;;;;13.53;79.19;99546.81;5026912;28;20037;-72
2021/09/14 00:13:21;;;;;;;20.38;18.20;;;;;;;13.49;79.33;99545.34;5028720;28;20034;-73
2021/09/14 00:15:47;;;;;;;24.85;19.02;;;;;;;13.47;78.75;99547.22;5027927;28;20056;-71
2021/09/14 00:18:12;;;;;;;25.25;19.70;;;;;;;13.44;78.63;99544.78;5027571;28;20029;-72
2021/09/14 00:20:37;;;;;;;23.42;17.83;;;;;;;13.39;78.93;99544.25;5027675;28;20045;-71
2021/09/14 00:23:03;;;;;;;22.55;19.92;;;;;;;13.36;79.32;99544.41;5027585;28;20112;-69
2021/09/14 00:25:30;;;;;;;20.50;17.55;;;;;;;13.36;79.54;99548.88;5027661;28;20053;-70
2021/09/14 00:27:55;;;;;;;20.95;14.55;;;;;;;13.38;78.75;99545.19;5028647;28;20093;-69
2021/09/14 00:30:21;;;;;;;22.45;20.10;;;;;;;13.34;79.38;99554.28;5028982;28;20068;-70
2021/09/14 00:32:46;;;;;;;18.40;16.50;;;;;;;13.40;79.41;99550.38;5028729;28;20044;-71
2021/09/14 00:35:12;;;;;;;25.25;20.27;;;;;;;13.36;78.73;99549.72;5027447;28;20465;-70
2021/09/14 00:37:37;;;;;;;24.45;20.65;;;;;;;13.29;79.13;99548.41;5026581;28;20061;-70
2021/09/14 00:40:05;;;;;;;20.60;18.40;;;;;;;13.27;79.58;99551.19;5028382;28;20076;-70
2021/09/14 00:42:30;;;;;;;21.77;18.38;;;;;;;13.29;79.03;99548.41;5027493;28;20073;-71
2021/09/14 00:44:56;;;;;;;24.33;19.33;;;;;;;13.28;78.49;99539.63;5026992;28;20061;-71
2021/09/14 00:47:21;;;;;;;20.48;17.20;;;;;;;13.25;79.53;99541.59;5028749;28;20037;-71
2021/09/14 00:49:46;;;;;;;20.77;17.80;;;;;;;13.27;79.20;99539.75;5029265;28;20056;-71
2021/09/14 00:52:12;;;;;;;19.55;16.48;;;;;;;13.25;79.13;99541.59;5028136;28;20029;-72
2021/09/14 00:54:40;;;;;;;23.40;19.77;;;;;;;13.21;79.09;99534.78;5028276;28;20408;-72
2021/09/14 00:57:06;;;;;;;19.02;16.27;;;;;;;13.19;79.71;99536.69;5028422;28;20073;-71
2021/09/14 00:59:32;;;;;;;19.92;16.95;;;;;;;13.21;79.20;99537.44;5028489;28;20068;-71
2021/09/14 01:01:57;;;;;;;22.00;18.42;;;;;;;13.16;79.30;99536.88;5001110;28;20459;-71
2021/09/14 01:04:23;;;;;;;21.83;18.95;;;;;;;13.07;79.50;99533.88;5028958;28;20114;-72
2021/09/14 01:06:49;;;;;;;20.13;16.70;;;;;;;13.01;79.23;99531.63;5013344;28;20033;-71
2021/09/14 01:09:15;;;;;;;20.60;17.20;;;;;;;12.99;79.87;99533.50;5028750;28;20037;-70
2021/09/14 01:11:41;;;;;;;21.65;19.35;;;;;;;12.99;79.93;99532.66;5029705;28;20053;-72
2021/09/14 01:14:08;;;;;;;19.45;17.25;;;;;;;12.95;79.99;99533.81;5041537;28;20064;-71
2021/09/14 01:16:36;;;;;;;20.23;17.80;;;;;;;12.97;80.14;99529.25;5040887;28;20030;-71
2021/09/14 01:19:06;;;;;;;18.58;15.98;;;;;;;12.95;79.96;99528.53;5037279;28;20611;-69
2021/09/14 01:21:32;;;;;;;21.27;18.10;;;;;;;12.94;79.63;99524.16;5036973;28;20041;-71
2021/09/14 01:23:58;;;;;;;18.83;15.73;;;;;;;12.93;79.72;99525.97;5031195;28;20029;-71
2021/09/14 01:26:25;;;;;;;20.02;17.45;;;;;;;12.97;79.77;99518.69;5027550;28;20048;-70
2021/09/14 01:28:50;;;;;;;16.05;14.35;;;;;;;13.01;79.64;99521.03;5027438;28;20067;-71
2021/09/14 01:31:16;;;;;;;21.75;15.93;;;;;;;13.00;79.34;99515.84;5026924;28;20033;-71
2021/09/14 01:33:46;;;;;;;17.90;15.35;;;;;;;13.00;79.57;99518.50;5028346;28;20113;-72
2021/09/14 01:36:12;;;;;;;19.38;15.73;;;;;;;12.96;79.36;99520.47;5029272;28;20092;-70
2021/09/14 01:38:37;;;;;;;18.88;16.10;;;;;;;12.95;79.56;99513.50;5028792;28;20037;-72
2021/09/14 01:41:02;;;;;;;14.93;12.65;;;;;;;13.00;78.96;99507.91;5026768;28;20038;-72
2021/09/14 01:43:28;;;;;;;18.10;15.80;;;;;;;13.02;79.24;99517.47;5028286;28;20060;-71
2021/09/14 01:45:53;;;;;;;17.08;15.25;;;;;;;12.98;79.44;99512.44;5028100;28;20160;-71
2021/09/14 01:48:19;;;;;;;16.25;13.90;;;;;;;12.99;79.28;99512.34;5027050;28;20049;-71
2021/09/14 01:50:45;;;;;;;17.38;15.35;;;;;;;12.98;79.01;99512.44;5030722;28;20040;-71
2021/09/14 01:53:11;;;;;;;18.80;15.32;;;;;;;12.93;79.22;99504.81;5031028;28;20484;-71
2021/09/14 01:55:36;;;;;;;16.67;14.27;;;;;;;12.93;79.66;99511.91;5030388;28;20171;-71
2021/09/14 01:58:01;;;;;;;13.82;11.35;;;;;;;12.99;79.28;99509.69;5031756;28;20378;-71
2021/09/14 02:00:32;;;;;;;16.98;13.82;;;;;;;13.00;79.44;99505.28;5031836;28;20029;-71
2021/09/14 02:03:11;;;;;;;15.48;13.93;;;;;;;13.03;78.92;99510.38;5031235;28;20034;-72
2021/09/14 02:06:00;;;;;;;19.45;14.18;;;;;;;13.02;78.41;99504.22;5031542;28;20452;-71
2021/09/14 02:38:35;;;;;;;17.80;15.83;;;;;;;12.83;79.81;99496.59;5031177;28;20037;-70
2021/09/14 02:59:43;;;;;;;12.15;10.95;;;;;;;12.88;79.52;99475.16;5028892;28;20033;-72
2021/09/14 03:02:09;;;;;;;17.13;15.32;;;;;;;12.89;79.74;99477.69;5028774;28;20037;-71
2021/09/14 03:04:34;;;;;;;13.60;12.20;;;;;;;12.85;78.94;99472.69;5031073;28;20087;-71
2021/09/14 03:06:59;;;;;;;15.00;12.73;;;;;;;12.83;79.35;99469.31;5031076;28;20100;-72
2021/09/14 03:09:25;;;;;;;14.43;12.60;;;;;;;12.80;79.48;99474.78;5030933;28;20116;-71
2021/09/14 03:11:50;;;;;;;14.20;12.63;;;;;;;12.80;79.39;99474.78;5030106;28;20037;-71
2021/09/14 03:14:15;;;;;;;13.32;12.02;;;;;;;12.81;80.00;99472.03;5030611;28;20041;-71
2021/09/14 03:16:41;;;;;;;12.55;10.75;;;;;;;12.85;79.36;99467.41;5030022;28;20037;-70
2021/09/14 03:19:06;;;;;;;13.25;9.88;;;;;;;12.88;79.47;99464.56;5030693;28;20037;-71
2021/09/14 03:21:32;;;;;;;11.60;9.93;;;;;;;12.89;79.96;99448.56;5029739;28;20031;-71
2021/09/14 03:23:58;;;;;;;11.85;9.50;;;;;;;12.94;79.29;99445.63;5030274;28;20067;-70
2021/09/14 03:26:23;;;;;;;14.40;12.07;;;;;;;12.95;78.72;99436.75;5029925;28;20033;-71
2021/09/14 03:28:49;;;;;;;15.60;11.95;;;;;;;12.91;78.76;99431.75;5030254;28;20044;-71
2021/09/14 03:31:16;;;;;;;15.35;11.73;;;;;;;12.92;78.65;99433.44;5028010;28;20113;-71
2021/09/14 03:33:46;;;;;;;12.55;10.77;;;;;;;12.95;79.02;99442.06;5030122;28;20488;-70
2021/09/14 03:36:11;;;;;;;13.18;11.80;;;;;;;12.97;78.94;99441.94;5028432;28;20041;-71
2021/09/14 03:38:36;;;;;;;15.73;12.07;;;;;;;12.94;79.30;99432.41;5030253;28;20385;-71
2021/09/14 03:41:02;;;;;;;10.25;9.10;;;;;;;12.93;79.12;99429.88;5027901;28;20060;-71
2021/09/14 03:43:27;;;;;;;12.98;10.90;;;;;;;12.90;78.73;99433.56;5029385;28;20038;-70
2021/09/14 03:45:53;;;;;;;12.93;11.40;;;;;;;12.90;79.15;99430.94;5029787;28;20482;-72
2021/09/14 03:48:18;;;;;;;12.48;11.15;;;;;;;12.84;79.02;99440.09;5011842;28;20044;-71
2021/09/14 03:50:44;;;;;;;10.55;8.93;;;;;;;12.83;78.65;99433.09;5029597;28;20025;-70
2021/09/14 03:53:10;;;;;;;11.65;10.45;;;;;;;12.80;79.74;99429.81;5029344;28;20533;-71
2021/09/14 03:55:36;;;;;;;9.63;8.63;;;;;;;12.78;78.91;99437.00;5029710;28;20721;-71
2021/09/14 03:58:01;;;;;;;13.60;10.48;;;;;;;12.79;79.06;99438.69;5028988;28;20040;-71
2021/09/14 04:00:28;;;;;;;10.43;8.85;;;;;;;12.78;79.53;99444.94;5029530;28;20037;-71
2021/09/14 04:03:01;;;;;;;13.32;9.50;;;;;;;12.78;79.29;99451.06;5029274;28;20030;-71
2021/09/14 04:10:34;;;;;;;11.77;10.57;;;;;;;12.79;79.06;99452.75;5029103;28;20041;-71
2021/09/14 04:12:59;;;;;;;11.00;9.30;;;;;;;12.78;79.45;99455.53;5028110;28;20445;-71
2021/09/14 04:15:24;;;;;;;14.00;9.82;;;;;;;12.75;79.58;99455.69;5027869;28;20037;-69
2021/09/14 04:17:50;;;;;;;11.38;9.50;;;;;;;12.79;79.51;99452.75;5027984;28;20402;-71
2021/09/14 04:20:15;;;;;;;14.35;10.15;;;;;;;12.78;79.30;99448.44;5028325;28;20046;-72
2021/09/14 04:22:40;;;;;;;11.98;10.68;;;;;;;12.79;79.74;99443.97;5030970;28;20033;-72
2021/09/14 04:25:06;;;;;;;9.77;8.70;;;;;;;12.77;79.98;99451.16;5030699;28;20068;-72
2021/09/14 04:27:32;;;;;;;12.75;10.48;;;;;;;12.74;79.73;99444.25;5029352;28;20086;-71
2021/09/14 04:29:57;;;;;;;17.60;8.20;;;;;;;12.77;80.04;99446.72;5027726;28;20116;-71
2021/09/14 04:32:23;;;;;;;10.82;8.93;;;;;;;12.81;79.54;99439.44;5028609;28;20051;-72
2021/09/14 04:34:48;;;;;;;12.35;8.90;;;;;;;12.79;79.64;99436.03;5012115;28;20036;-72
2021/09/14 04:37:13;;;;;;;10.77;9.68;;;;;;;12.76;79.55;99437.09;5014549;28;20037;-71
2021/09/14 04:39:39;;;;;;;11.70;10.25;;;;;;;12.74;79.82;99428.41;5015711;28;20049;-71
2021/09/14 04:42:04;;;;;;;13.05;9.07;;;;;;;12.76;80.21;99433.59;5004651;28;20040;-70
2021/09/14 04:44:30;;;;;;;12.77;10.05;;;;;;;12.72;79.48;99424.16;5010394;28;20038;-71
2021/09/14 04:46:55;;;;;;;12.35;9.32;;;;;;;12.73;79.88;99413.50;5003156;28;20060;-71
2021/09/14 04:49:20;;;;;;;15.00;9.18;;;;;;;12.78;79.60;99410.56;5023322;28;20044;-72
2021/09/14 04:51:46;;;;;;;11.43;9.18;;;;;;;12.79;79.38;99412.22;4986277;28;20029;-71
2021/09/14 04:54:11;;;;;;;10.32;8.40;;;;;;;12.76;79.15;99408.00;5012930;28;20061;-71
2021/09/14 04:56:36;;;;;;;9.38;7.90;;;;;;;12.79;79.87;99415.72;5017871;28;20041;-71
2021/09/14 04:59:02;;;;;;;12.60;8.10;;;;;;;12.84;80.07;99408.34;5028281;28;20462;-70
2021/09/14 05:01:27;;;;;;;11.23;8.50;;;;;;;12.92;80.03;99412.28;5028155;28;20041;-71
2021/09/14 05:03:52;;;;;;;11.00;9.50;;;;;;;12.95;79.93;99426.19;5028892;28;20124;-71
2021/09/14 05:06:18;;;;;;;12.13;8.38;;;;;;;12.95;79.66;99423.53;5020481;28;20140;-71
2021/09/14 05:08:43;;;;;;;11.75;10.30;;;;;;;12.95;79.69;99423.53;5027843;28;20116;-73
2021/09/14 05:11:09;;;;;;;10.63;9.52;;;;;;;12.95;79.27;99418.25;5029705;28;20034;-71
2021/09/14 05:13:36;;;;;;;15.80;8.43;;;;;;;12.93;79.89;99412.19;5030305;28;20076;-71
2021/09/14 05:16:02;;;;;;;22.25;9.73;;;;;;;12.93;79.52;99406.91;5021895;28;20474;-72
2021/09/14 05:18:28;;;;;;;11.68;8.77;;;;;;;12.93;79.70;99414.84;5041058;28;20057;-73
2021/09/14 05:20:55;;;;;;;16.30;10.88;;;;;;;12.98;79.68;99410.09;5041236;28;20120;-73
2021/09/14 05:23:30;;;;;;;16.10;11.05;;;;;;;13.04;79.98;99412.34;5032677;28;20037;-70
2021/09/14 05:25:58;;;;;;;17.77;12.15;;;;;;;13.08;80.06;99410.34;5043868;28;20033;-72
2021/09/14 05:28:24;;;;;;;17.20;10.68;;;;;;;13.02;79.93;99414.25;5043480;28;20397;-72
2021/09/14 05:30:50;;;;;;;11.57;8.93;;;;;;;13.00;80.04;99407.38;5042785;28;20040;-71
2021/09/14 05:33:16;;;;;;;13.27;10.02;;;;;;;13.03;80.16;99408.00;5042198;28;20042;-72
2021/09/14 05:35:51;;;;;;;12.40;7.55;;;;;;;13.05;80.28;99394.69;5037028;28;20160;-71
2021/09/14 05:38:18;;;;;;;;;;;;;;;13.09;79.61;99394.38;5032663;28;20060;-72
2021/09/14 05:40:44;;;;;;;15.30;9.30;;;;;;;13.13;79.77;99399.47;5031950;28;20415;-73
2021/09/14 05:43:10;;;;;;;13.27;9.88;;;;;;;13.16;78.97;99401.91;5031909;28;20041;-71
2021/09/14 05:45:36;;;;;;;16.23;11.20;;;;;;;13.21;79.08;99395.34;5030391;28;20033;-70
2021/09/14 05:48:01;;;;;;;17.55;9.88;;;;;;;13.27;80.17;99402.91;5031631;28;20037;-70
2021/09/14 05:50:27;;;;;;;14.20;8.15;;;;;;;13.31;79.98;99400.91;5030198;28;20464;-72
2021/09/14 05:52:53;;;;;;;12.13;9.50;;;;;;;13.36;79.88;99404.09;5031089;28;20041;-71
2021/09/14 05:55:18;;;;;;;12.10;9.60;;;;;;;13.43;79.84;99405.38;5030567;28;20061;-71
2021/09/14 05:57:44;;;;;;;10.38;9.27;;;;;;;13.48;79.48;99411.22;5031738;28;20104;-71
2021/09/14 06:00:10;;;;;;;13.75;9.60;;;;;;;13.51;79.83;99411.03;5031801;28;20033;-73
2021/09/14 06:02:35;;;;;;;14.02;9.43;;;;;;;13.61;79.42;99423.63;5029893;28;20037;-71
2021/09/14 06:05:01;;;;;;;11.43;8.90;;;;;;;13.66;79.65;99424.16;5031982;28;20041;-71
2021/09/14 06:07:26;;;;;;;12.55;8.10;;;;;;;13.70;79.41;99423.84;5029945;28;20129;-71
2021/09/14 06:09:52;;;;;;;16.40;8.93;;;;;;;13.74;79.16;99429.81;5031512;28;20701;-73
2021/09/14 06:12:17;;;;;;;11.35;7.97;;;;;;;13.79;79.71;99419.75;5029132;28;20690;-73
2021/09/14 06:14:42;;;;;;;13.77;10.27;;;;;;;13.82;78.97;99416.88;5031306;28;20037;-74
2021/09/14 06:17:08;;;;;;;13.82;8.20;;;;;;;13.89;79.59;99419.97;5029694;28;20489;-73
2021/09/14 06:19:33;;;;;;;14.23;10.25;;;;;;;13.98;78.60;99414.03;5031361;28;20033;-71
2021/09/14 06:21:58;;;;;;;16.27;9.27;;;;;;;14.04;79.12;99418.06;5030881;28;20176;-71
2021/09/14 06:24:24;;;;;;;17.67;9.27;;;;;;;14.07;79.02;99413.38;5030122;28;20045;-74
2021/09/14 06:26:49;;;;;;;13.85;9.52;;;;;;;14.10;79.33;99418.50;5030176;28;20071;-73
2021/09/14 06:29:15;;;;;;;13.60;9.77;;;;;;;14.14;78.76;99419.94;5032629;28;20512;-72
2021/09/14 06:31:40;;;;;;;10.95;8.98;;;;;;;14.19;79.53;99416.97;5032566;28;20461;-71
2021/09/14 06:34:05;;;;;;;12.93;9.82;;;;;;;14.21;79.25;99409.78;5030957;28;20460;-71
2021/09/14 06:36:31;;;;;;;12.73;9.25;;;;;;;14.24;79.57;99417.50;5029892;28;20037;-71
2021/09/14 06:38:56;;;;;;;10.80;7.45;;;;;;;14.29;79.65;99420.66;5029694;28;20045;-71
2021/09/14 06:41:22;;;;;;;13.07;8.40;;;;;;;14.39;79.56;99419.06;5030980;28;20068;-71
2021/09/14 06:43:47;;;;;;;10.32;8.25;;;;;;;14.44;79.30;99412.59;5029616;28;20104;-72
2021/09/14 06:46:13;;;;;;;10.70;8.13;;;;;;;14.48;79.15;99409.63;5031263;28;20500;-72
2021/09/14 06:48:38;;;;;;;10.80;7.90;;;;;;;14.58;78.67;99404.53;5029414;28;20504;-72
2021/09/14 06:51:04;;;;;;;13.85;8.35;;;;;;;14.63;78.91;99404.22;5028326;28;20041;-70
2021/09/14 06:53:30;;;;;;;14.35;9.45;;;;;;;14.68;78.98;99402.06;5031628;28;20041;-71
2021/09/14 06:55:56;;;;;;;9.40;8.10;;;;;;;14.77;78.88;99412.88;5029947;28;20088;-71
2021/09/14 06:58:21;;;;;;;13.05;8.48;;;;;;;14.93;78.40;99406.44;5029040;28;20040;-72
2021/09/14 07:00:46;;;;;;;11.88;7.43;;;;;;;15.09;78.16;99406.13;5030330;28;20036;-71
2021/09/14 07:03:13;;;;;;;10.85;7.82;;;;;;;15.22;77.50;99404.28;5029997;28;20493;-72
2021/09/14 07:05:39;;;;;;;10.68;8.07;;;;;;;15.37;77.27;99404.94;5027885;28;20493;-72
2021/09/14 07:08:04;;;;;;;10.73;8.63;;;;;;;15.53;76.87;99400.16;5028444;28;20048;-72
2021/09/14 07:10:30;;;;;;;15.55;9.70;;;;;;;15.67;76.59;99404.41;5032668;28;20030;-72
2021/09/14 07:12:55;;;;;;;11.27;7.50;;;;;;;15.79;76.19;99400.84;5039413;28;20059;-72
2021/09/14 07:15:21;;;;;;;10.98;8.18;;;;;;;15.93;75.55;99410.44;5023634;28;20033;-72
2021/09/14 07:17:46;;;;;;;10.60;8.13;;;;;;;16.06;75.22;99402.34;5043378;28;20064;-72
2021/09/14 07:20:12;;;;;;;10.02;7.82;;;;;;;16.21;74.75;99403.78;5043661;28;20378;-72
2021/09/14 07:22:37;;;;;;;10.25;7.95;;;;;;;16.34;74.60;99411.63;5038906;28;20036;-72
2021/09/14 07:25:03;;;;;;;13.55;9.43;;;;;;;16.45;74.71;99408.97;5030707;28;20105;-72
2021/09/14 07:27:28;;;;;;;10.30;8.35;;;;;;;16.56;74.41;99400.13;5031588;28;20049;-72
2021/09/14 07:29:54;;;;;;;9.70;8.07;;;;;;;16.71;74.22;99404.25;5031292;28;20033;-73
2021/09/14 07:32:19;;;;;;;14.23;9.23;;;;;;;16.85;73.82;99405.78;5031646;28;20101;-72
2021/09/14 07:34:45;;;;;;;12.70;8.80;;;;;;;17.05;73.40;99400.66;5033534;28;20041;-70
2021/09/14 07:37:10;;;;;;;17.38;9.57;;;;;;;17.24;72.68;99403.50;5034104;28;20468;-70
2021/09/14 07:39:35;;;;;;;13.55;9.68;;;;;;;17.41;72.58;99403.91;5033266;28;20532;-72
2021/09/14 07:42:01;;;;;;;15.10;8.68;;;;;;;17.65;72.22;99401.00;5014636;28;20124;-72
2021/09/14 07:44:26;;;;;;;17.55;11.30;;;;;;;17.86;71.70;99393.84;5031768;28;20103;-70
2021/09/14 07:46:52;;;;;;;14.13;9.98;;;;;;;18.13;70.94;99398.63;5034173;28;20037;-72
2021/09/14 07:49:18;;;;;;;10.68;7.32;;;;;;;18.35;70.73;99392.25;5033995;28;20034;-72
2021/09/14 07:51:43;;;;;;;15.98;8.32;;;;;;;18.59;68.91;99388.41;5031826;28;20030;-72
2021/09/14 07:54:09;;;;;;;16.10;10.02;;;;;;;18.79;68.67;99387.50;5032221;28;20037;-70
2021/09/14 07:56:34;;;;;;;17.60;8.05;;;;;;;19.00;68.55;99392.75;5035187;28;20037;-71
2021/09/14 07:58:59;;;;;;;14.63;8.15;;;;;;;19.23;67.10;99387.97;5037447;28;20034;-71
2021/09/14 08:01:25;;;;;;;21.02;9.52;;;;;;;19.44;66.00;99395.84;5034600;28;20144;-70
2021/09/14 08:03:50;;;;;;;9.85;6.80;;;;;;;19.66;66.42;99401.84;5034154;28;20040;-71
2021/09/14 08:06:15;;;;;;;16.10;6.93;;;;;;;19.81;65.53;99392.41;5030004;28;20087;-71
2021/09/14 08:08:41;;;;;;;14.55;7.20;;;;;;;19.99;64.86;99391.69;5031776;28;20041;-71
2021/09/14 08:11:06;;;;;;;15.02;8.57;;;;;;;20.03;65.62;99383.22;5031080;28;20037;-71
2021/09/14 08:13:31;;;;;;;16.45;7.97;;;;;;;20.05;65.78;99383.06;5029803;28;20133;-70
2021/09/14 08:15:57;;;;;;;16.27;8.38;;;;;;;20.14;64.53;99387.56;5019122;28;20052;-72
2021/09/14 08:18:22;;;;;;;20.45;8.88;;;;;;;20.31;65.09;99388.63;5023512;28;20033;-49
2021/09/14 08:20:48;;;;;;;16.80;9.23;;;;;;;20.48;64.92;99392.34;5027527;28;20029;-44
2021/09/14 08:23:13;;;;;;;24.55;8.52;;;;;;;20.67;62.98;99392.25;5029441;28;20120;-45
2021/09/14 08:25:38;;;;;;;11.95;7.80;;;;;;;20.83;63.04;99391.59;5024705;28;20053;-46
2021/09/14 08:28:04;;;;;;;10.15;7.85;;;;;;;20.97;62.23;99383.06;5028273;28;20448;-44
2021/09/14 08:30:30;;;;;;;8.55;6.82;;;;;;;21.17;62.28;99374.88;5027888;28;20037;-48
2021/09/14 08:32:55;;;;;;;12.70;7.82;;;;;;;21.38;61.31;99387.94;5027961;28;20031;-48
2021/09/14 08:35:21;;;;;;;11.77;5.45;;;;;;;21.62;60.68;99380.13;5028412;28;20545;-47
2021/09/14 08:37:46;;;;;;;9.32;6.22;;;;;;;21.83;60.31;99389.63;5028813;28;20033;-48
2021/09/14 08:40:12;;;;;;;9.48;5.50;;;;;;;21.98;59.80;99384.53;5028380;28;20128;-50
2021/09/14 08:42:38;;;;;;;6.25;4.90;;;;;;;22.21;59.27;99391.09;5028108;28;20132;-48
2021/09/14 08:45:06;;;;;;;18.17;7.57;;;;;;;22.38;60.08;99375.91;5028886;28;20083;-50
2021/09/14 08:47:31;;;;;;;10.45;6.05;;;;;;;22.48;61.06;99356.97;5028511;28;20497;-48
2021/09/14 08:49:57;;;;;;;13.10;6.53;;;;;;;22.54;59.95;99356.31;5014170;28;20133;-48
2021/09/14 08:52:22;;;;;;;11.68;5.47;;;;;;;22.72;59.88;99350.81;5009061;28;20124;-46
2021/09/14 08:54:48;;;;;;;11.88;5.85;;;;;;;22.91;59.29;99345.16;5023067;28;20033;-50
2021/09/14 08:57:14;;;;;;;9.65;5.65;;;;;;;23.24;57.82;99344.38;5022671;28;20042;-47
2021/09/14 08:59:46;;;;;;;9.88;4.80;;;;;;;23.56;56.91;99338.97;5022904;28;20059;-49
2021/09/14 09:02:12;;;;;;;7.25;4.53;;;;;;;23.80;56.69;99350.75;5020064;28;20029;-48
2021/09/14 09:04:37;;;;;;;6.15;4.70;;;;;;;23.76;56.62;99358.31;5011750;28;20048;-48
2021/09/14 09:07:03;;;;;;;7.32;5.15;;;;;;;23.59;56.71;99364.69;5020486;28;20099;-72
2021/09/14 09:09:32;;;;;;;9.70;4.90;;;;;;;23.88;57.00;99360.66;5021255;28;20116;-72
2021/09/14 09:12:00;;;;;;;12.52;6.90;;;;;;;24.80;54.31;99361.81;5022247;28;20037;-72
2021/09/14 09:14:35;;;;;;;13.18;5.80;;;;;;;25.83;50.49;99367.78;5022907;28;20038;-72
2021/09/14 09:17:10;;;;;;;9.25;5.30;;;;;;;26.71;50.08;99376.94;5023162;28;20410;-72
2021/09/14 09:19:36;;;;;;;7.72;4.63;;;;;;;27.36;45.75;99375.97;5022721;28;20107;-72
2021/09/14 09:22:02;;;;;;;13.45;6.07;;;;;;;27.80;43.76;99377.59;5021172;28;20119;-70
2021/09/14 09:24:28;;;;;;;10.45;5.10;;;;;;;28.09;42.43;99367.59;5022745;28;20048;-70
2021/09/14 09:26:53;;;;;;;6.50;3.47;;;;;;;28.65;41.42;99372.09;5023037;28;20033;-68
2021/09/14 09:29:22;;;;;;;4.35;3.08;;;;;;;28.92;39.69;99364.00;5022958;28;20517;-71
2021/09/14 09:31:48;;;;;;;7.05;3.70;;;;;;;29.22;39.97;99361.81;5020654;28;20029;-73
2021/09/14 09:34:14;;;;;;;4.38;3.05;;;;;;;29.28;38.98;99372.66;5023065;28;20034;-70
2021/09/14 09:36:42;;;;;;;3.65;3.35;;;;;;;29.72;38.51;99387.56;5022419;28;20044;-72
2021/09/14 09:39:14;;;;;;;7.95;4.00;;;;;;;30.45;37.42;99374.91;5009037;28;20539;-71
2021/09/14 09:41:54;;;;;;;9.55;5.10;;;;;;;30.68;36.88;99383.38;5012249;28;20034;-72
2021/09/14 09:44:20;;;;;;;22.13;5.60;;;;;;;30.98;36.16;99372.78;5018852;28;20029;-71
2021/09/14 09:46:56;;;;;;;10.73;4.47;;;;;;;31.21;35.61;99382.28;5025398;28;20030;-72
2021/09/14 09:49:23;;;;;;;8.73;3.75;;;;;;;31.37;34.73;99381.75;5009310;28;20103;-72
2021/09/14 09:51:50;;;;;;;12.45;5.20;;;;;;;31.66;35.03;99379.47;5009152;28;20432;-73
2021/09/14 09:54:17;;;;;;;5.45;3.55;;;;;;;31.88;33.94;99371.72;5017829;28;20705;-73
2021/09/14 09:56:43;;;;;;;5.15;4.25;;;;;;;32.00;33.90;99372.66;5022211;28;20087;-72
2021/09/14 09:59:10;;;;;;;4.82;3.67;;;;;;;31.17;34.88;99364.72;5020648;28;20111;-69
2021/09/14 10:01:36;;;;;;;4.90;2.95;;;;;;;30.17;37.29;99357.78;5021141;28;20075;-72
2021/09/14 10:04:09;;;;;;;4.05;3.03;;;;;;;30.47;37.07;99367.34;5021938;28;20041;-73
2021/09/14 10:06:39;;;;;;;16.40;5.68;;;;;;;30.89;36.64;99365.09;5022203;28;20072;-69
2021/09/14 10:09:05;;;;;;;6.90;3.92;;;;;;;30.10;37.62;99359.72;5022636;28;20038;-70
2021/09/14 10:11:32;;;;;;;6.35;3.22;;;;;;;29.46;38.36;99358.50;5021452;28;20049;-71
2021/09/14 10:14:11;;;;;;;9.82;4.40;;;;;;;29.05;39.30;99362.19;5025117;28;20186;-72
2021/09/14 10:16:39;;;;;;;8.23;4.28;;;;;;;29.01;39.41;99358.19;5025227;28;20037;-72
2021/09/14 10:19:16;;;;;;;14.57;4.63;;;;;;;29.61;38.50;99360.13;5025841;28;20176;-72
2021/09/14 10:21:44;;;;;;;8.45;4.35;;;;;;;29.70;38.23;99356.22;5024952;28;20038;-71
2021/09/14 10:24:22;;;;;;;5.70;3.17;;;;;;;29.84;37.78;99348.88;5026222;28;20468;-72
2021/09/14 10:26:49;;;;;;;5.03;3.50;;;;;;;30.14;37.52;99349.22;5027986;28;20412;-71
2021/09/14 10:29:18;;;;;;;3.92;3.10;;;;;;;30.28;36.54;99344.63;5026861;28;20465;-71
2021/09/14 10:31:43;;;;;;;8.32;3.67;;;;;;;30.49;37.23;99346.19;5025254;28;20045;-71
2021/09/14 10:34:14;;;;;;;4.05;3.38;;;;;;;30.71;35.87;99346.72;5020549;28;21457;-72
2021/09/14 10:36:57;;;;;;;4.50;2.80;;;;;;;30.43;36.30;99339.75;5030532;28;21010;-71
2021/09/14 10:39:24;;;;;;;10.50;4.27;;;;;;;30.06;37.29;99339.41;5030948;28;20052;-72
2021/09/14 10:41:54;;;;;;;4.82;3.75;;;;;;;29.47;38.72;99334.88;5030229;28;20045;-72
2021/09/14 10:44:31;;;;;;;11.70;4.25;;;;;;;29.20;39.56;99336.75;5031011;28;20053;-72
2021/09/14 10:47:06;;;;;;;23.23;4.93;;;;;;;28.76;40.57;99333.50;5030630;28;20033;-72
2021/09/14 10:49:42;;;;;;;16.95;4.30;;;;;;;28.43;40.69;99330.66;5013008;28;20037;-71
2021/09/14 10:52:08;;;;;;;4.55;2.90;;;;;;;28.14;41.01;99338.03;5030631;28;20038;-70
2021/09/14 10:54:42;;;;;;;4.10;3.22;;;;;;;27.89;42.25;99329.56;5014136;28;20030;-72
2021/09/14 10:57:08;;;;;;;;;;;;;;;27.68;42.88;99333.13;5032724;28;20044;-72
2021/09/14 10:59:33;;;;;;;8.13;3.50;;;;;;;27.46;43.68;99339.63;5032229;28;20116;-72
2021/09/14 11:01:58;;;;;;;17.08;4.57;;;;;;;27.24;43.36;99339.63;5029241;28;20034;-71
2021/09/14 11:04:27;;;;;;;4.93;4.00;;;;;;;27.04;44.44;99333.16;5031028;28;20451;-71
2021/09/14 11:06:52;;;;;;;9.98;3.55;;;;;;;26.78;44.61;99337.28;5029511;28;20057;-72
2021/09/14 11:09:19;;;;;;;4.07;2.97;;;;;;;26.62;45.40;99332.09;5013139;28;20033;-73
2021/09/14 11:11:51;;;;;;;6.57;4.63;;;;;;;26.49;45.67;99333.59;5030144;28;20474;-72
2021/09/14 11:14:16;;;;;;;5.75;3.72;;;;;;;26.31;45.33;99333.13;5031541;28;20144;-73
2021/09/14 11:16:46;;;;;;;6.50;3.88;;;;;;;26.16;46.53;99332.31;5046175;28;20040;-72
2021/09/14 11:19:11;;;;;;;6.50;3.53;;;;;;;26.01;46.64;99332.31;5049488;28;20025;-72
2021/09/14 11:21:44;;;;;;;4.55;3.35;;;;;;;25.89;46.54;99330.09;5050255;28;20033;-71
2021/09/14 11:24:10;;;;;;;7.45;3.05;;;;;;;25.80;47.23;99344.69;5050762;28;21466;-72
2021/09/14 11:26:35;;;;;;;5.38;2.90;;;;;;;25.74;47.70;99345.41;5050551;28;20546;-73
2021/09/14 11:29:01;;;;;;;4.30;3.58;;;;;;;25.64;48.22;99350.22;5049973;28;20045;-72
2021/09/14 11:31:31;;;;;;;9.23;3.83;;;;;;;25.52;48.27;99355.22;5049765;28;20558;-71
2021/09/14 11:33:57;;;;;;;8.02;3.30;;;;;;;25.44;48.31;99350.75;5049761;28;20036;-72
2021/09/14 11:36:24;;;;;;;4.45;3.15;;;;;;;25.44;48.26;99345.34;5048424;28;20041;-72
2021/09/14 11:39:05;;;;;;;5.75;3.72;;;;;;;25.39;49.00;99344.22;5025545;28;20444;-72
2021/09/14 11:41:35;;;;;;;20.98;5.05;;;;;;;25.30;49.00;99343.44;5049088;28;20129;-73
2021/09/14 11:44:01;;;;;;;5.75;3.85;;;;;;;25.18;48.37;99342.19;5049386;28;20044;-72
2021/09/14 11:46:27;;;;;;;5.30;3.50;;;;;;;25.16;49.13;99344.22;5050379;28;20369;-72
2021/09/14 11:48:54;;;;;;;5.93;4.75;;;;;;;25.15;48.84;99340.66;5048614;28;20493;-72
2021/09/14 11:51:21;;;;;;;8.77;4.22;;;;;;;25.16;49.26;99346.94;5049569;28;21043;-72
2021/09/14 11:53:50;;;;;;;6.03;4.20;;;;;;;25.20;49.44;99345.56;5048982;28;20117;-73
2021/09/14 11:56:18;;;;;;;7.03;3.70;;;;;;;25.21;49.19;99340.00;5048340;28;20041;-72
2021/09/14 11:58:46;;;;;;;9.15;4.47;;;;;;;25.32;48.73;99340.56;5050005;28;20496;-71
2021/09/14 12:01:13;;;;;;;10.73;7.32;;;;;;;25.46;48.41;99334.38;5049369;28;20033;-70
2021/09/14 12:03:45;;;;;;;8.13;4.43;;;;;;;25.63;48.88;99332.38;5048495;28;20069;-72
2021/09/14 12:06:20;;;;;;;8.43;4.63;;;;;;;25.81;48.53;99326.63;5049833;28;20115;-72
2021/09/14 12:08:45;;;;;;;;;;;;;;;25.94;47.06;99328.69;5049453;28;20025;-72
2021/09/14 12:11:10;;;;;;;5.13;4.23;;;;;;;25.95;47.03;99330.38;5047935;28;19923;-72
2021/09/14 12:13:42;;;;;;;5.68;3.60;;;;;;;25.98;47.19;99325.44;5049788;28;20303;-71
2021/09/14 12:16:13;;;;;;;4.85;3.22;;;;;;;25.96;47.28;99330.19;5049515;28;20033;-72
2021/09/14 12:18:42;;;;;;;4.78;3.42;;;;;;;25.88;47.62;99327.56;5048596;28;20451;-72